createdAt,value
2019-05-17T00:00:41.881Z,24.77
2019-05-17T00:03:17.023Z,26.77
2019-05-17T00:05:50.136Z,35.85
2019-05-17T00:08:31.960Z,42.40
2019-05-17T00:10:57.526Z,48.58
2019-05-17T00:13:30.345Z,43.78
2019-05-17T00:16:03.477Z,35.28
2019-05-17T00:18:37.053Z,34.40
2019-05-17T00:21:10.056Z,38.38
2019-05-17T00:23:42.935Z,45.75
2019-05-17T00:26:16.442Z,50.65
2019-05-17T00:28:49.486Z,51.13
2019-05-17T00:31:22.401Z,59.03
2019-05-17T00:33:56.582Z,55.03
2019-05-17T00:36:29.877Z,45.63
2019-05-17T00:39:02.892Z,39.70
2019-05-17T00:41:37.471Z,41.25
2019-05-17T00:44:10.274Z,42.58
2019-05-17T00:46:43.091Z,42.85
2019-05-17T00:49:17.121Z,37.58
2019-05-17T00:51:50.230Z,46.65
2019-05-17T00:54:23.085Z,42.23
2019-05-17T00:56:56.699Z,30.80
2019-05-17T00:59:29.670Z,33.90
2019-05-17T01:02:02.554Z,36.17
2019-05-17T01:04:36.824Z,37.53
2019-05-17T01:07:09.943Z,32.67
2019-05-17T01:09:42.879Z,34.53
2019-05-17T01:12:16.425Z,29.57
2019-05-17T01:14:49.450Z,26.00
2019-05-17T01:17:22.305Z,21.85
2019-05-17T01:19:57.216Z,15.38
2019-05-17T01:22:29.747Z,18.62
2019-05-17T01:25:02.543Z,18.20
2019-05-17T01:27:37.994Z,22.17
2019-05-17T01:30:11.778Z,27.40
2019-05-17T01:32:46.456Z,25.82
2019-05-17T01:35:19.250Z,21.55
2019-05-17T01:37:52.092Z,21.87
2019-05-17T01:40:26.474Z,24.30
2019-05-17T01:42:59.445Z,20.20
2019-05-17T01:45:32.558Z,20.50
2019-05-17T01:48:07.436Z,26.42
2019-05-17T01:50:40.007Z,24.67
2019-05-17T01:53:12.931Z,28.70
2019-05-17T01:55:46.603Z,26.70
2019-05-17T01:58:19.690Z,22.67
2019-05-17T02:00:52.510Z,21.15
2019-05-17T02:03:26.779Z,23.07
2019-05-17T02:05:59.734Z,15.28
2019-05-17T02:08:32.570Z,14.80
2019-05-17T02:11:06.948Z,21.77
2019-05-17T02:13:39.902Z,22.77
2019-05-17T02:16:12.907Z,26.68
2019-05-17T02:18:46.622Z,25.32
2019-05-17T02:21:19.501Z,25.15
2019-05-17T02:23:52.364Z,28.52
2019-05-17T02:26:26.671Z,29.72
2019-05-17T02:29:01.427Z,25.00
2019-05-17T02:31:34.980Z,23.32
2019-05-17T02:34:08.027Z,29.55
2019-05-17T02:36:43.079Z,29.37
2019-05-17T02:39:15.382Z,35.70
2019-05-17T02:41:48.290Z,31.97
2019-05-17T02:44:23.584Z,35.15
2019-05-17T02:46:55.736Z,33.13
2019-05-17T02:49:28.570Z,25.17
2019-05-17T02:52:03.162Z,31.00
2019-05-17T02:54:35.890Z,33.20
2019-05-17T02:57:08.890Z,30.45
2019-05-17T02:59:43.303Z,32.73
2019-05-17T03:02:16.383Z,36.33
2019-05-17T03:04:52.402Z,36.58
2019-05-17T03:07:23.810Z,36.65
2019-05-17T03:10:12.436Z,26.85
2019-05-17T03:12:32.852Z,25.48
2019-05-17T03:15:07.359Z,32.08
2019-05-17T03:17:43.423Z,40.60
2019-05-17T03:20:16.549Z,36.85
2019-05-17T03:22:52.330Z,37.33
2019-05-17T03:25:24.126Z,36.88
2019-05-17T03:27:57.041Z,33.92
2019-05-17T03:30:35.563Z,24.95
2019-05-17T03:33:07.920Z,28.42
2019-05-17T03:35:45.158Z,32.50
2019-05-17T03:38:14.477Z,36.38
2019-05-17T03:41:07.352Z,35.45
2019-05-17T03:43:22.622Z,36.40
2019-05-17T03:45:56.763Z,44.93
2019-05-17T03:48:32.994Z,42.08
2019-05-17T03:51:04.106Z,26.70
2019-05-17T03:53:36.989Z,29.07
2019-05-17T03:56:13.161Z,37.30
2019-05-17T03:58:44.330Z,41.77
2019-05-17T04:01:17.217Z,41.10
2019-05-17T04:03:52.709Z,43.80
2019-05-17T04:06:24.750Z,44.27
2019-05-17T04:08:57.565Z,47.40
2019-05-17T04:11:35.538Z,34.65
2019-05-17T04:14:05.236Z,30.17
2019-05-17T04:16:38.193Z,41.13
2019-05-17T04:19:14.029Z,43.78
2019-05-17T04:21:46.785Z,45.67
2019-05-17T04:24:22.897Z,46.50
2019-05-17T04:26:54.266Z,52.83
2019-05-17T04:29:27.132Z,50.65
2019-05-17T04:32:03.532Z,34.80
2019-05-17T04:34:34.702Z,38.92
2019-05-17T04:37:08.625Z,38.38
2019-05-17T04:39:43.208Z,43.80
2019-05-17T04:42:16.171Z,48.85
2019-05-17T04:44:52.423Z,52.83
2019-05-17T04:47:23.938Z,52.83
2019-05-17T04:49:56.783Z,49.45
2019-05-17T04:52:33.327Z,32.53
2019-05-17T04:55:05.521Z,43.68
2019-05-17T04:57:38.321Z,46.77
2019-05-17T05:00:12.996Z,48.55
2019-05-17T05:02:46.294Z,50.85
2019-05-17T05:05:22.473Z,58.35
2019-05-17T05:07:54.031Z,58.33
2019-05-17T05:10:27.148Z,38.45
2019-05-17T05:13:02.793Z,35.85
2019-05-17T05:15:43.915Z,41.13
2019-05-17T05:18:17.906Z,42.23
2019-05-17T05:20:52.670Z,45.20
2019-05-17T05:23:25.253Z,57.08
2019-05-17T05:25:58.057Z,50.55
2019-05-17T05:28:31.718Z,39.35
2019-05-17T05:31:04.824Z,31.30
2019-05-17T05:33:37.653Z,36.03
2019-05-17T05:36:11.424Z,39.80
2019-05-17T05:38:44.311Z,35.05
2019-05-17T05:41:17.281Z,35.92
2019-05-17T05:43:52.458Z,35.17
2019-05-17T05:46:24.635Z,36.28
2019-05-17T05:48:57.465Z,38.70
2019-05-17T05:51:32.010Z,39.05
2019-05-17T05:54:05.934Z,38.10
2019-05-17T05:56:38.763Z,35.17
2019-05-17T05:59:12.254Z,35.10
2019-05-17T06:01:46.520Z,36.42
2019-05-17T06:04:19.342Z,20.27
2019-05-17T06:06:52.312Z,23.87
2019-05-17T06:09:25.159Z,26.70
2019-05-17T06:11:57.949Z,19.32
2019-05-17T06:14:32.338Z,27.27
2019-05-17T06:17:05.431Z,29.67
2019-05-17T06:19:38.258Z,23.70
2019-05-17T06:22:12.025Z,25.27
2019-05-17T06:24:45.445Z,29.07
2019-05-17T06:27:18.238Z,30.20
2019-05-17T06:29:51.619Z,28.23
2019-05-17T06:32:24.435Z,29.45
2019-05-17T06:34:57.229Z,41.65
2019-05-17T06:37:31.782Z,33.55
2019-05-17T06:40:05.050Z,27.48
2019-05-17T06:42:41.342Z,27.17
2019-05-17T06:45:13.929Z,24.82
2019-05-17T06:47:46.741Z,31.75
2019-05-17T06:50:19.855Z,33.78
2019-05-17T06:52:53.302Z,28.10
2019-05-17T06:55:27.255Z,32.20
2019-05-17T06:58:01.679Z,29.07
2019-05-17T07:00:34.822Z,34.40
2019-05-17T07:03:09.531Z,26.37
2019-05-17T07:05:44.256Z,26.02
2019-05-17T07:08:17.170Z,29.15
2019-05-17T07:10:50.305Z,29.27
2019-05-17T07:13:24.318Z,23.18
2019-05-17T07:15:59.527Z,28.07
2019-05-17T07:18:31.627Z,27.77
2019-05-17T07:21:04.423Z,24.45
2019-05-17T07:23:39.521Z,22.00
2019-05-17T07:26:12.134Z,25.85
2019-05-17T07:28:45.031Z,28.83
2019-05-17T07:31:21.232Z,28.42
2019-05-17T07:33:52.343Z,24.77
2019-05-17T07:36:25.211Z,26.62
2019-05-17T07:38:58.111Z,24.25
2019-05-17T07:41:32.915Z,24.05
2019-05-17T07:44:05.834Z,26.02
2019-05-17T07:46:40.225Z,27.00
2019-05-17T07:49:13.256Z,28.57
2019-05-17T07:51:46.048Z,29.07
2019-05-17T07:54:19.752Z,27.80
2019-05-17T07:56:53.957Z,28.27
2019-05-17T07:59:26.747Z,29.20
2019-05-17T08:01:59.784Z,27.73
2019-05-17T08:04:32.650Z,24.25
2019-05-17T08:07:05.858Z,25.08
2019-05-17T08:09:40.420Z,24.87
2019-05-17T08:12:13.378Z,29.98
2019-05-17T08:14:46.337Z,22.32
2019-05-17T08:17:19.822Z,22.67
2019-05-17T08:19:52.920Z,25.02
2019-05-17T08:22:25.713Z,26.80
2019-05-17T08:25:00.038Z,26.62
2019-05-17T08:27:33.439Z,31.20
2019-05-17T08:30:06.459Z,33.50
2019-05-17T08:32:40.136Z,23.18
2019-05-17T08:35:13.297Z,22.98
2019-05-17T08:37:46.127Z,23.05
2019-05-17T08:40:20.045Z,22.65
2019-05-17T08:42:53.138Z,23.55
2019-05-17T08:45:26.000Z,22.52
2019-05-17T08:48:00.339Z,22.67
2019-05-17T08:50:33.503Z,23.32
2019-05-17T08:53:06.464Z,25.72
2019-05-17T08:55:40.849Z,21.10
2019-05-17T08:58:13.826Z,22.10
2019-05-17T09:00:46.705Z,21.55
2019-05-17T09:03:19.757Z,25.77
2019-05-17T09:05:53.106Z,20.48
2019-05-17T09:08:26.080Z,30.23
2019-05-17T09:11:00.339Z,26.62
2019-05-17T09:13:33.577Z,23.95
2019-05-17T09:16:06.549Z,22.70
2019-05-17T09:18:39.597Z,25.27
2019-05-17T09:21:13.021Z,26.62
2019-05-17T09:23:45.916Z,22.80
2019-05-17T09:26:20.028Z,26.62
2019-05-17T09:28:53.076Z,24.35
2019-05-17T09:31:25.886Z,22.67
2019-05-17T09:34:00.269Z,23.18
2019-05-17T09:36:33.478Z,21.57
2019-05-17T09:39:09.463Z,30.55
2019-05-17T09:41:42.671Z,29.32
2019-05-17T09:44:16.525Z,27.00
2019-05-17T09:46:50.399Z,25.27
2019-05-17T09:49:23.378Z,24.65
2019-05-17T09:51:56.285Z,25.00
2019-05-17T09:54:41.466Z,24.20
2019-05-17T09:57:03.691Z,22.40
2019-05-17T09:59:36.625Z,23.35
2019-05-17T10:02:10.489Z,23.67
2019-05-17T10:04:43.455Z,24.43
2019-05-17T10:07:17.883Z,25.80
2019-05-17T10:09:51.856Z,26.35
2019-05-17T10:12:24.652Z,25.57
2019-05-17T10:14:57.479Z,24.27
2019-05-17T10:17:30.331Z,28.00
2019-05-17T10:20:03.192Z,30.85
2019-05-17T10:22:36.215Z,30.40
2019-05-17T10:25:10.039Z,28.60
2019-05-17T10:27:42.965Z,25.95
2019-05-17T10:30:17.288Z,26.37
2019-05-17T10:32:51.687Z,25.52
2019-05-17T10:35:24.592Z,25.72
2019-05-17T10:37:59.594Z,25.12
2019-05-17T10:40:32.791Z,31.50
2019-05-17T10:43:05.692Z,26.10
2019-05-17T10:45:40.084Z,25.97
2019-05-17T10:48:13.180Z,24.43
2019-05-17T10:50:46.307Z,24.67
2019-05-17T10:53:20.372Z,26.68
2019-05-17T10:55:54.812Z,31.00
2019-05-17T10:58:29.634Z,28.47
2019-05-17T11:01:02.390Z,25.85
2019-05-17T11:03:35.233Z,27.10
2019-05-17T11:06:10.714Z,27.55
2019-05-17T11:08:42.745Z,28.77
2019-05-17T11:11:15.884Z,28.25
2019-05-17T11:13:48.875Z,26.02
2019-05-17T11:16:21.764Z,26.70
2019-05-17T11:18:54.630Z,25.10
2019-05-17T11:21:27.432Z,23.30
2019-05-17T11:24:00.497Z,29.90
2019-05-17T11:26:34.410Z,27.40
2019-05-17T11:29:07.406Z,24.50
2019-05-17T11:31:40.345Z,27.42
2019-05-17T11:34:13.185Z,25.32
2019-05-17T11:36:46.045Z,26.42
2019-05-17T11:39:20.447Z,25.00
2019-05-17T11:41:53.447Z,25.40
2019-05-17T11:44:26.432Z,22.05
2019-05-17T11:46:59.350Z,28.05
2019-05-17T11:49:33.209Z,23.55
2019-05-17T11:52:06.206Z,24.40
2019-05-17T11:54:39.503Z,23.98
2019-05-17T11:57:12.555Z,22.95
2019-05-17T11:59:45.648Z,27.95
2019-05-17T12:02:21.388Z,25.52
2019-05-17T12:04:52.981Z,21.33
2019-05-17T12:07:25.947Z,19.23
2019-05-17T12:09:58.768Z,25.02
2019-05-17T12:12:31.590Z,22.32
2019-05-17T12:15:05.996Z,23.75
2019-05-17T12:17:38.938Z,27.00
2019-05-17T12:20:13.196Z,38.78
2019-05-17T12:22:46.030Z,23.73
2019-05-17T12:25:18.909Z,39.42
2019-05-17T12:27:51.863Z,28.75
2019-05-17T12:30:25.144Z,22.67
2019-05-17T12:32:58.037Z,22.48
2019-05-17T12:35:30.872Z,23.57
2019-05-17T12:38:03.767Z,28.23
2019-05-17T12:40:36.608Z,25.57
2019-05-17T12:43:09.498Z,28.17
2019-05-17T12:45:42.458Z,20.68
2019-05-17T12:48:16.321Z,25.17
2019-05-17T12:50:49.284Z,23.47
2019-05-17T12:53:22.134Z,24.77
2019-05-17T12:55:54.961Z,33.65
2019-05-17T12:58:27.800Z,22.35
2019-05-17T13:01:00.644Z,22.42
2019-05-17T13:03:33.422Z,28.25
2019-05-17T13:06:06.400Z,25.00
2019-05-17T13:08:39.549Z,26.25
2019-05-17T13:11:12.440Z,25.25
2019-05-17T13:13:45.312Z,24.02
2019-05-17T13:16:19.377Z,22.00
2019-05-17T13:18:52.333Z,20.88
2019-05-17T13:21:25.297Z,23.62
2019-05-17T13:23:58.311Z,23.15
2019-05-17T13:26:31.149Z,19.80
2019-05-17T13:29:04.056Z,22.05
2019-05-17T13:31:36.891Z,19.23
2019-05-17T13:34:09.724Z,22.17
2019-05-17T13:36:42.645Z,31.60
2019-05-17T13:39:15.667Z,19.00
2019-05-17T13:41:48.579Z,20.10
2019-05-17T13:44:21.497Z,21.30
2019-05-17T13:46:54.348Z,20.05
2019-05-17T13:49:27.462Z,18.98
2019-05-17T13:52:00.302Z,26.97
2019-05-17T13:54:33.318Z,25.00
2019-05-17T13:57:06.161Z,22.22
2019-05-17T13:59:39.044Z,22.65
2019-05-17T14:02:11.850Z,19.37
2019-05-17T14:04:44.738Z,21.40
2019-05-17T14:07:17.514Z,21.75
2019-05-17T14:09:50.427Z,27.65
2019-05-17T14:12:25.802Z,20.75
2019-05-17T14:15:00.149Z,19.60
2019-05-17T14:17:33.247Z,19.77
2019-05-17T14:20:07.308Z,17.40
2019-05-17T14:22:40.190Z,18.77
2019-05-17T14:25:13.299Z,17.75
2019-05-17T14:27:46.115Z,21.65
2019-05-17T14:30:19.439Z,17.82
2019-05-17T14:32:52.261Z,18.57
2019-05-17T14:35:25.154Z,20.65
2019-05-17T14:37:57.931Z,31.00
2019-05-17T14:41:04.277Z,20.77
2019-05-17T14:43:05.334Z,23.12
2019-05-17T14:45:38.481Z,28.87
2019-05-17T14:48:11.505Z,18.62
2019-05-17T14:50:44.490Z,21.57
2019-05-17T14:53:17.502Z,18.77
2019-05-17T14:55:50.307Z,17.77
2019-05-17T14:58:23.139Z,17.48
2019-05-17T15:00:56.047Z,16.82
2019-05-17T15:03:28.904Z,17.40
2019-05-17T15:06:01.748Z,18.95
2019-05-17T15:08:34.582Z,19.42
2019-05-17T15:11:07.557Z,18.30
2019-05-17T15:13:40.397Z,18.40
2019-05-17T15:16:13.321Z,18.57
2019-05-17T15:18:46.247Z,16.32
2019-05-17T15:21:19.441Z,21.12
2019-05-17T15:23:52.380Z,23.42
2019-05-17T15:26:25.139Z,26.52
2019-05-17T15:28:58.019Z,22.27
2019-05-17T15:31:31.794Z,22.40
2019-05-17T15:34:04.596Z,22.52
2019-05-17T15:36:37.468Z,27.55
2019-05-17T15:39:10.355Z,17.02
2019-05-17T15:41:43.197Z,19.73
2019-05-17T15:44:16.096Z,21.50
2019-05-17T15:46:49.072Z,18.85
2019-05-17T15:49:21.900Z,19.12
2019-05-17T15:51:54.864Z,17.70
2019-05-17T15:54:27.763Z,21.82
2019-05-17T15:57:00.560Z,18.92
2019-05-17T15:59:33.432Z,17.27
2019-05-17T16:02:06.360Z,21.33
2019-05-17T16:04:39.243Z,16.97
2019-05-17T16:07:12.097Z,22.67
2019-05-17T16:09:46.028Z,14.95
2019-05-17T16:12:19.092Z,17.98
2019-05-17T16:14:52.005Z,27.37
2019-05-17T16:17:24.897Z,22.50
2019-05-17T16:19:57.826Z,17.35
2019-05-17T16:22:30.669Z,18.05
2019-05-17T16:25:03.514Z,17.87
2019-05-17T16:27:36.409Z,20.30
2019-05-17T16:30:09.530Z,18.82
2019-05-17T16:32:42.361Z,16.82
2019-05-17T16:35:15.495Z,17.73
2019-05-17T16:37:48.386Z,17.32
2019-05-17T16:40:21.518Z,23.05
2019-05-17T16:42:54.311Z,18.80
2019-05-17T16:45:27.115Z,19.80
2019-05-17T16:47:59.914Z,21.40
2019-05-17T16:50:32.785Z,24.40
2019-05-17T16:53:07.120Z,20.57
2019-05-17T16:55:39.944Z,16.90
2019-05-17T16:58:12.887Z,20.00
2019-05-17T17:00:46.426Z,21.50
2019-05-17T17:03:19.420Z,24.77
2019-05-17T17:05:52.261Z,21.55
2019-05-17T17:08:25.120Z,22.62
2019-05-17T17:10:58.045Z,23.00
2019-05-17T17:13:33.072Z,24.55
2019-05-17T17:16:05.433Z,22.85
2019-05-17T17:18:38.373Z,23.27
2019-05-17T17:21:11.605Z,21.35
2019-05-17T17:23:44.441Z,23.92
2019-05-17T17:26:17.343Z,27.75
2019-05-17T17:28:50.242Z,25.43
2019-05-17T17:31:23.308Z,21.85
2019-05-17T17:33:56.282Z,24.02
2019-05-17T17:36:29.154Z,28.00
2019-05-17T17:39:02.088Z,22.07
2019-05-17T17:41:36.551Z,23.77
2019-05-17T17:44:09.725Z,28.52
2019-05-17T17:46:42.750Z,26.40
2019-05-17T17:49:16.742Z,23.30
2019-05-17T17:51:49.705Z,22.95
2019-05-17T17:54:23.619Z,25.32
2019-05-17T17:56:56.707Z,24.30
2019-05-17T17:59:29.620Z,35.25
2019-05-17T18:02:02.636Z,37.63
2019-05-17T18:04:35.544Z,33.23
2019-05-17T18:07:08.438Z,32.65
2019-05-17T18:09:41.484Z,29.70
2019-05-17T18:12:14.420Z,43.45
2019-05-17T18:14:47.521Z,65.15
2019-05-17T18:17:20.516Z,65.40
2019-05-17T18:19:53.526Z,56.13
2019-05-17T18:22:26.549Z,82.05
2019-05-17T18:24:59.561Z,76.85
2019-05-17T18:27:32.539Z,91.17
2019-05-17T18:30:06.318Z,91.10
2019-05-17T18:32:39.203Z,88.97
2019-05-17T18:35:12.323Z,59.27
2019-05-17T18:37:45.588Z,63.00
2019-05-17T18:40:27.420Z,56.20
2019-05-17T18:43:04.481Z,52.85
2019-05-17T18:45:38.324Z,45.15
2019-05-17T18:48:23.393Z,56.30
2019-05-17T18:50:57.784Z,45.03
2019-05-17T18:53:38.005Z,51.02
2019-05-17T18:56:17.667Z,59.80
2019-05-17T18:58:56.940Z,53.30
2019-05-17T19:01:33.363Z,45.85
2019-05-17T19:04:12.809Z,55.45
2019-05-17T19:06:46.521Z,47.62
2019-05-17T19:09:19.617Z,52.15
2019-05-17T19:11:52.481Z,60.17
2019-05-17T19:14:25.454Z,58.92
2019-05-17T19:16:58.430Z,58.87
2019-05-17T19:19:32.468Z,61.37
2019-05-17T19:22:05.424Z,48.33
2019-05-17T19:24:38.902Z,44.65
2019-05-17T19:27:11.851Z,51.13
2019-05-17T19:29:44.715Z,60.23
2019-05-17T19:32:17.541Z,52.30
2019-05-17T19:34:50.432Z,52.48
2019-05-17T19:37:23.394Z,51.42
2019-05-17T19:39:56.384Z,54.63
2019-05-17T19:42:29.207Z,61.90
2019-05-17T19:45:02.172Z,63.60
2019-05-17T19:47:36.495Z,55.35
2019-05-17T19:50:09.943Z,68.62
2019-05-17T19:52:42.827Z,75.17
2019-05-17T19:55:16.194Z,81.32
2019-05-17T19:57:49.116Z,81.42
2019-05-17T20:00:22.406Z,81.67
2019-05-17T20:02:56.037Z,95.83
2019-05-17T20:05:29.247Z,135.75
2019-05-17T20:08:02.977Z,115.52
2019-05-17T20:10:39.363Z,111.88
2019-05-17T20:13:12.312Z,102.07
2019-05-17T20:15:46.352Z,108.72
2019-05-17T20:18:19.233Z,91.40
2019-05-17T20:20:52.220Z,106.97
2019-05-17T20:23:25.148Z,94.92
2019-05-17T20:25:58.053Z,104.78
2019-05-17T20:28:30.981Z,109.00
2019-05-17T20:31:03.929Z,98.55
2019-05-17T20:33:37.172Z,104.47
2019-05-17T20:36:10.174Z,68.95
2019-05-17T20:38:42.976Z,66.82
2019-05-17T20:41:16.047Z,69.32
2019-05-17T20:43:48.966Z,80.62
2019-05-17T20:46:21.926Z,69.50
2019-05-17T20:48:54.803Z,72.90
2019-05-17T20:51:27.889Z,79.60
2019-05-17T20:54:00.776Z,93.70
2019-05-17T20:56:33.788Z,67.53
2019-05-17T20:59:06.704Z,75.70
2019-05-17T21:01:39.711Z,78.25
2019-05-17T21:04:12.624Z,78.37
2019-05-17T21:06:46.012Z,81.57
2019-05-17T21:09:19.008Z,85.70
2019-05-17T21:11:51.936Z,126.33
2019-05-17T21:14:24.891Z,161.18
2019-05-17T21:16:57.901Z,163.25
2019-05-17T21:19:30.913Z,136.82
2019-05-17T21:22:03.723Z,131.15
2019-05-17T21:24:36.583Z,110.72
2019-05-17T21:27:09.679Z,112.62
2019-05-17T21:29:42.625Z,96.10
2019-05-17T21:32:15.517Z,90.00
2019-05-17T21:34:48.442Z,74.05
2019-05-17T21:37:21.318Z,67.65
2019-05-17T21:39:54.104Z,67.15
2019-05-17T21:42:27.104Z,81.97
2019-05-17T21:44:59.947Z,79.60
2019-05-17T21:47:32.788Z,83.47
2019-05-17T21:50:05.929Z,78.17
2019-05-17T21:52:38.863Z,88.60
2019-05-17T21:55:13.272Z,66.30
2019-05-17T21:57:46.100Z,76.72
2019-05-17T22:00:59.473Z,73.20
2019-05-17T22:03:32.632Z,78.90
2019-05-17T22:06:05.631Z,76.50
2019-05-17T22:08:38.792Z,89.55
2019-05-17T22:11:11.758Z,97.33
2019-05-17T22:13:44.626Z,99.45
2019-05-17T22:16:20.182Z,72.17
2019-05-17T22:18:53.353Z,68.15
2019-05-17T22:21:26.297Z,79.45
2019-05-17T22:23:59.067Z,82.40
2019-05-17T22:26:31.880Z,79.22
2019-05-17T22:29:04.944Z,88.82
2019-05-17T22:31:39.024Z,98.67
2019-05-17T22:34:12.064Z,108.15
2019-05-17T22:36:44.963Z,84.62
2019-05-17T22:39:17.827Z,67.87
2019-05-17T22:41:50.702Z,83.70
2019-05-17T22:44:23.678Z,78.12
2019-05-17T22:46:56.588Z,79.37
2019-05-17T22:49:29.525Z,83.27
2019-05-17T22:52:02.549Z,96.37
2019-05-17T22:54:35.534Z,94.58
2019-05-17T22:57:08.391Z,91.47
2019-05-17T22:59:41.254Z,71.28
2019-05-17T23:02:14.161Z,75.72
2019-05-17T23:04:47.135Z,85.15
2019-05-17T23:07:20.157Z,76.02
2019-05-17T23:09:53.098Z,71.45
2019-05-17T23:12:25.954Z,83.50
2019-05-17T23:14:58.943Z,78.40
2019-05-17T23:17:31.920Z,71.70
2019-05-17T23:20:04.971Z,60.33
2019-05-17T23:22:37.912Z,64.77
2019-05-17T23:25:11.510Z,70.52
2019-05-17T23:27:44.470Z,63.25
2019-05-17T23:30:18.094Z,75.78
2019-05-17T23:32:51.023Z,89.28
2019-05-17T23:35:23.802Z,65.75
2019-05-17T23:37:57.053Z,80.17
2019-05-17T23:40:30.082Z,67.03
2019-05-17T23:43:02.892Z,67.82
2019-05-17T23:45:35.759Z,76.80
2019-05-17T23:48:08.595Z,78.28
2019-05-17T23:50:41.420Z,82.95
2019-05-17T23:53:14.231Z,72.25
2019-05-17T23:55:47.217Z,66.77
2019-05-17T23:58:20.073Z,69.58
